createdAt,value
2023-04-24T00:02:14.677Z,12.96
2023-04-24T00:04:45.754Z,13.49
2023-04-24T00:07:13.824Z,13.59
2023-04-24T00:09:42.915Z,13.50
2023-04-24T00:12:11.382Z,13.26
2023-04-24T00:14:38.946Z,13.46
2023-04-24T00:17:07.014Z,13.44
2023-04-24T00:19:34.610Z,13.44
2023-04-24T00:22:02.121Z,13.57
2023-04-24T00:24:29.626Z,13.36
2023-04-24T00:26:58.444Z,13.50
2023-04-24T00:29:26.037Z,13.53
2023-04-24T00:31:53.540Z,13.52
2023-04-24T00:34:21.247Z,13.25
2023-04-24T00:36:50.025Z,12.67
2023-04-24T00:39:17.538Z,12.68
2023-04-24T00:41:46.419Z,13.10
2023-04-24T00:44:15.732Z,13.10
2023-04-24T00:46:43.868Z,12.96
2023-04-24T00:49:11.698Z,13.03
2023-04-24T00:51:39.198Z,13.27
2023-04-24T00:54:06.731Z,13.54
2023-04-24T00:56:34.828Z,13.72
2023-04-24T00:59:02.325Z,13.89
2023-04-24T01:01:31.321Z,14.05
2023-04-24T01:04:00.226Z,13.95
2023-04-24T01:06:30.033Z,13.84
2023-04-24T01:08:57.638Z,13.68
2023-04-24T01:11:25.370Z,13.54
2023-04-24T01:13:53.367Z,13.62
2023-04-24T01:16:21.896Z,13.55
2023-04-24T01:18:50.927Z,13.61
2023-04-24T01:21:19.881Z,13.60
2023-04-24T01:23:48.928Z,13.45
2023-04-24T01:26:18.562Z,12.97
2023-04-24T01:28:46.067Z,12.88
2023-04-24T01:31:13.665Z,13.05
2023-04-24T01:33:41.308Z,13.14
2023-04-24T01:36:10.316Z,13.22
2023-04-24T01:38:37.873Z,13.11
2023-04-24T01:41:06.725Z,13.24
2023-04-24T01:43:34.430Z,13.36
2023-04-24T01:46:01.939Z,13.27
2023-04-24T01:48:29.795Z,13.40
2023-04-24T01:50:58.468Z,13.02
2023-04-24T01:53:25.951Z,13.11
2023-04-24T01:55:53.484Z,13.20
2023-04-24T01:58:22.906Z,13.31
2023-04-24T02:00:50.408Z,13.04
2023-04-24T02:03:18.107Z,12.92
2023-04-24T02:05:46.286Z,13.10
2023-04-24T02:08:13.875Z,13.35
2023-04-24T02:10:41.364Z,12.93
2023-04-24T02:13:08.853Z,13.10
2023-04-24T02:15:37.941Z,13.32
2023-04-24T02:18:05.590Z,13.34
2023-04-24T02:20:34.965Z,13.18
2023-04-24T02:23:02.521Z,13.30
2023-04-24T02:25:30.041Z,13.53
2023-04-24T02:27:57.535Z,13.51
2023-04-24T02:30:25.051Z,13.29
2023-04-24T02:32:53.854Z,13.46
2023-04-24T02:35:21.387Z,13.50
2023-04-24T02:37:48.889Z,13.62
2023-04-24T02:40:16.644Z,13.51
2023-04-24T02:42:44.149Z,13.60
2023-04-24T02:45:12.466Z,13.66
2023-04-24T02:47:40.040Z,13.65
2023-04-24T02:50:10.166Z,13.59
2023-04-24T02:52:37.657Z,13.60
2023-04-24T02:55:05.975Z,13.21
2023-04-24T02:57:33.445Z,12.91
2023-04-24T03:00:01.251Z,13.25
2023-04-24T03:02:28.915Z,12.93
2023-04-24T03:04:58.049Z,12.96
2023-04-24T03:07:26.860Z,12.85
2023-04-24T03:09:54.354Z,13.09
2023-04-24T03:12:21.848Z,13.14
2023-04-24T03:14:49.330Z,12.79
2023-04-24T03:17:16.815Z,12.57
2023-04-24T03:19:44.747Z,12.55
2023-04-24T03:22:13.166Z,12.54
2023-04-24T03:24:42.190Z,12.51
2023-04-24T03:27:09.700Z,12.36
2023-04-24T03:29:37.206Z,12.44
2023-04-24T03:32:04.996Z,12.22
2023-04-24T03:34:32.488Z,12.50
2023-04-24T03:36:59.970Z,12.37
2023-04-24T03:39:28.338Z,12.45
2023-04-24T03:41:57.112Z,11.84
2023-04-24T03:44:24.663Z,11.61
2023-04-24T03:46:52.182Z,11.63
2023-04-24T03:49:19.651Z,11.58
2023-04-24T03:51:47.132Z,11.58
2023-04-24T03:54:14.721Z,11.52
2023-04-24T03:56:42.235Z,11.29
2023-04-24T03:59:11.171Z,11.29
2023-04-24T04:01:39.090Z,11.25
2023-04-24T04:04:06.795Z,11.24
2023-04-24T04:06:34.498Z,11.19
2023-04-24T04:09:02.216Z,11.18
2023-04-24T04:11:29.665Z,11.25
2023-04-24T04:13:57.653Z,11.32
2023-04-24T04:16:26.497Z,11.28
2023-04-24T04:18:53.981Z,11.32
2023-04-24T04:21:21.513Z,11.47
2023-04-24T04:23:49.038Z,11.58
2023-04-24T04:26:16.644Z,11.58
2023-04-24T04:28:45.804Z,11.32
2023-04-24T04:31:13.874Z,11.45
2023-04-24T04:33:42.723Z,11.61
2023-04-24T04:36:10.414Z,11.79
2023-04-24T04:38:37.976Z,11.46
2023-04-24T04:41:05.679Z,11.58
2023-04-24T04:43:33.602Z,11.27
2023-04-24T04:46:01.704Z,11.14
2023-04-24T04:48:29.620Z,11.13
2023-04-24T04:50:58.491Z,11.44
2023-04-24T04:53:26.924Z,11.33
2023-04-24T04:55:54.549Z,11.47
2023-04-24T04:58:22.141Z,11.59
2023-04-24T05:00:49.664Z,11.73
2023-04-24T05:03:21.092Z,11.61
2023-04-24T05:05:49.281Z,11.91
2023-04-24T05:08:26.451Z,11.67
2023-04-24T05:10:54.999Z,11.51
2023-04-24T05:13:35.606Z,11.74
2023-04-24T05:16:06.494Z,11.80
2023-04-24T05:18:34.111Z,11.66
2023-04-24T05:21:02.370Z,11.63
2023-04-24T05:23:31.546Z,11.80
2023-04-24T05:25:59.292Z,11.78
2023-04-24T05:28:29.197Z,11.72
2023-04-24T05:30:57.316Z,11.77
2023-04-24T05:33:25.220Z,11.63
2023-04-24T05:35:52.861Z,11.50
2023-04-24T05:38:20.887Z,11.64
2023-04-24T05:40:49.717Z,11.76
2023-04-24T05:43:17.226Z,11.83
2023-04-24T05:45:44.739Z,12.01
2023-04-24T05:48:12.298Z,12.23
2023-04-24T05:50:39.774Z,12.16
2023-04-24T05:53:08.043Z,12.31
2023-04-24T05:55:35.617Z,12.39
2023-04-24T05:58:04.665Z,12.27
2023-04-24T06:00:32.578Z,12.09
2023-04-24T06:03:00.172Z,12.33
2023-04-24T06:05:28.279Z,12.11
2023-04-24T06:07:55.937Z,12.25
2023-04-24T06:10:23.597Z,12.27
2023-04-24T06:12:51.101Z,12.38
2023-04-24T06:15:20.582Z,12.48
2023-04-24T06:17:48.248Z,12.78
2023-04-24T06:20:15.864Z,12.68
2023-04-24T06:22:43.344Z,12.22
2023-04-24T06:25:11.038Z,12.26
2023-04-24T06:27:38.570Z,12.46
2023-04-24T06:30:07.350Z,12.48
2023-04-24T06:32:36.172Z,12.54
2023-04-24T06:35:03.678Z,12.78
2023-04-24T06:37:31.335Z,12.77
2023-04-24T06:39:58.788Z,13.00
2023-04-24T06:42:26.298Z,13.23
2023-04-24T06:44:53.758Z,13.47
2023-04-24T06:47:21.301Z,13.80
2023-04-24T06:49:51.879Z,13.84
2023-04-24T06:52:19.350Z,13.66
2023-04-24T06:54:46.839Z,14.15
2023-04-24T06:57:14.470Z,14.02
2023-04-24T06:59:42.075Z,14.17
2023-04-24T07:02:09.968Z,14.34
2023-04-24T07:04:37.819Z,14.53
2023-04-24T07:07:07.691Z,14.84
2023-04-24T07:09:39.387Z,15.12
2023-04-24T07:12:07.048Z,14.75
2023-04-24T07:14:34.513Z,14.85
2023-04-24T07:17:02.244Z,15.40
2023-04-24T07:19:29.719Z,15.04
2023-04-24T07:21:59.120Z,15.13
2023-04-24T07:24:30.830Z,15.59
2023-04-24T07:26:58.442Z,15.60
2023-04-24T07:29:26.087Z,15.70
2023-04-24T07:31:55.242Z,15.57
2023-04-24T07:34:22.801Z,15.11
2023-04-24T07:36:50.364Z,14.13
2023-04-24T07:39:17.828Z,13.78
2023-04-24T07:41:46.671Z,14.77
2023-04-24T07:44:14.123Z,15.19
2023-04-24T07:46:42.193Z,15.60
2023-04-24T07:49:13.441Z,16.03
2023-04-24T07:51:42.346Z,16.34
2023-04-24T07:54:10.572Z,16.88
2023-04-24T07:56:39.843Z,16.69
2023-04-24T07:59:08.992Z,15.94
2023-04-24T08:01:36.487Z,15.96
2023-04-24T08:04:04.348Z,16.14
2023-04-24T08:06:32.898Z,16.07
2023-04-24T08:09:01.412Z,16.13
2023-04-24T08:11:29.295Z,15.88
2023-04-24T08:13:56.898Z,14.61
2023-04-24T08:16:25.782Z,14.34
2023-04-24T08:18:53.430Z,12.94
2023-04-24T08:21:21.717Z,11.98
2023-04-24T08:23:49.224Z,11.69
2023-04-24T08:26:16.738Z,12.12
2023-04-24T08:28:44.491Z,12.19
2023-04-24T08:31:12.167Z,12.20
2023-04-24T08:33:41.935Z,12.46
2023-04-24T08:36:09.597Z,12.73
2023-04-24T08:38:37.093Z,12.73
2023-04-24T08:41:05.531Z,13.07
2023-04-24T08:43:35.324Z,13.26
2023-04-24T08:46:06.091Z,12.66
2023-04-24T08:48:36.611Z,12.44
2023-04-24T08:51:11.710Z,12.44
2023-04-24T08:53:39.778Z,12.38
2023-04-24T08:56:07.377Z,12.20
2023-04-24T08:58:35.621Z,12.14
2023-04-24T09:01:03.885Z,12.04
2023-04-24T09:03:33.270Z,12.10
2023-04-24T09:06:02.022Z,13.01
2023-04-24T09:08:32.694Z,13.40
2023-04-24T09:11:02.905Z,13.44
2023-04-24T09:13:30.746Z,12.96
2023-04-24T09:15:59.303Z,12.50
2023-04-24T09:18:28.056Z,12.31
2023-04-24T09:21:04.193Z,12.32
2023-04-24T09:23:33.793Z,12.58
2023-04-24T09:26:02.551Z,13.04
2023-04-24T09:28:32.683Z,13.57
2023-04-24T09:31:09.030Z,14.24
2023-04-24T09:33:36.918Z,15.06
2023-04-24T09:36:05.002Z,14.56
2023-04-24T09:38:36.074Z,13.67
2023-04-24T09:41:04.966Z,12.59
2023-04-24T09:43:32.920Z,12.02
2023-04-24T09:46:02.010Z,11.93
2023-04-24T09:48:33.690Z,11.59
2023-04-24T09:51:02.759Z,11.67
2023-04-24T09:53:30.342Z,11.78
2023-04-24T09:56:04.558Z,12.15
2023-04-24T09:58:32.167Z,11.88
2023-04-24T10:00:59.651Z,12.43
2023-04-24T10:03:30.669Z,12.61
2023-04-24T10:06:00.758Z,12.88
2023-04-24T10:08:34.762Z,12.91
2023-04-24T10:11:03.979Z,13.05
2023-04-24T10:13:32.304Z,12.80
2023-04-24T10:16:02.462Z,12.97
2023-04-24T10:18:30.852Z,13.28
2023-04-24T10:20:59.427Z,13.73
2023-04-24T10:23:27.287Z,13.48
2023-04-24T10:25:55.831Z,13.55
2023-04-24T10:28:26.530Z,13.57
2023-04-24T10:30:56.694Z,13.65
2023-04-24T10:33:24.965Z,14.00
2023-04-24T10:35:53.768Z,13.46
2023-04-24T10:38:26.901Z,13.89
2023-04-24T10:40:59.747Z,13.80
2023-04-24T10:43:28.650Z,14.45
2023-04-24T10:46:03.974Z,14.38
2023-04-24T10:48:31.702Z,14.49
2023-04-24T10:50:59.424Z,14.37
2023-04-24T10:53:30.596Z,13.38
2023-04-24T10:56:05.327Z,13.20
2023-04-24T10:58:41.944Z,14.09
2023-04-24T11:01:09.666Z,13.81
2023-04-24T11:03:38.153Z,14.13
2023-04-24T11:06:07.936Z,13.57
2023-04-24T11:08:41.662Z,13.05
2023-04-24T11:11:13.787Z,12.77
2023-04-24T11:14:06.099Z,12.74
2023-04-24T11:16:35.524Z,12.36
2023-04-24T11:19:05.064Z,11.68
2023-04-24T11:21:43.301Z,10.88
2023-04-24T11:24:32.018Z,10.84
2023-04-24T11:27:02.615Z,11.09
2023-04-24T11:29:45.894Z,11.98
2023-04-24T11:32:30.850Z,12.01
2023-04-24T11:34:59.907Z,12.44
2023-04-24T11:37:29.500Z,12.97
2023-04-24T11:39:59.355Z,13.37
2023-04-24T11:42:27.002Z,13.72
2023-04-24T11:44:57.872Z,14.71
2023-04-24T11:47:32.046Z,15.54
2023-04-24T11:50:00.709Z,15.65
2023-04-24T11:52:29.180Z,16.01
2023-04-24T11:54:57.144Z,16.05
2023-04-24T11:57:28.811Z,14.58
2023-04-24T11:59:57.788Z,13.87
2023-04-24T12:02:25.977Z,14.56
2023-04-24T12:04:54.744Z,14.66
2023-04-24T12:07:23.207Z,14.92
2023-04-24T12:09:52.792Z,15.07
2023-04-24T12:12:20.737Z,14.44
2023-04-24T12:14:54.627Z,14.75
2023-04-24T12:17:29.292Z,14.42
2023-04-24T12:20:00.231Z,14.47
2023-04-24T12:22:27.910Z,14.49
2023-04-24T12:25:03.028Z,15.08
2023-04-24T12:27:32.976Z,15.29
2023-04-24T12:30:01.305Z,15.81
2023-04-24T12:32:30.180Z,16.30
2023-04-24T12:34:58.556Z,17.00
2023-04-24T12:37:27.498Z,16.54
2023-04-24T12:40:06.827Z,14.20
2023-04-24T12:42:34.756Z,13.70
2023-04-24T12:45:05.067Z,13.27
2023-04-24T12:47:34.960Z,13.44
2023-04-24T12:50:02.627Z,13.23
2023-04-24T12:52:31.989Z,13.30
2023-04-24T12:55:00.919Z,12.73
2023-04-24T12:57:30.148Z,12.41
2023-04-24T12:59:58.864Z,12.22
2023-04-24T13:02:27.582Z,12.36
2023-04-24T13:04:56.526Z,11.98
2023-04-24T13:07:24.196Z,12.20
2023-04-24T13:09:53.413Z,12.47
2023-04-24T13:12:21.769Z,12.63
2023-04-24T13:14:49.297Z,12.71
2023-04-24T13:17:17.209Z,12.58
2023-04-24T13:19:46.109Z,12.27
2023-04-24T13:22:15.068Z,12.48
2023-04-24T13:24:42.975Z,12.40
2023-04-24T13:27:11.101Z,12.76
2023-04-24T13:29:38.728Z,13.66
2023-04-24T13:32:06.517Z,13.65
2023-04-24T13:34:35.485Z,14.20
2023-04-24T13:37:04.685Z,14.82
2023-04-24T13:39:33.925Z,14.43
2023-04-24T13:42:04.381Z,13.88
2023-04-24T13:44:32.705Z,12.94
2023-04-24T13:47:00.767Z,12.45
2023-04-24T13:49:28.888Z,12.24
2023-04-24T13:51:57.672Z,12.06
2023-04-24T13:54:26.984Z,12.07
2023-04-24T13:56:59.774Z,12.18
2023-04-24T13:59:27.458Z,12.09
2023-04-24T14:01:55.736Z,11.36
2023-04-24T14:04:23.445Z,11.22
2023-04-24T14:06:51.427Z,11.19
2023-04-24T14:09:18.928Z,11.69
2023-04-24T14:11:46.491Z,11.53
2023-04-24T14:14:15.536Z,11.71
2023-04-24T14:16:43.070Z,11.36
2023-04-24T14:19:10.544Z,11.21
2023-04-24T14:21:38.026Z,11.36
2023-04-24T14:24:05.745Z,11.35
2023-04-24T14:26:33.275Z,11.38
2023-04-24T14:29:11.726Z,11.87
2023-04-24T14:31:43.571Z,12.03
2023-04-24T14:34:11.393Z,12.30
2023-04-24T14:36:39.087Z,11.60
2023-04-24T14:39:07.949Z,11.30
2023-04-24T14:41:36.982Z,11.35
2023-04-24T14:44:04.769Z,11.73
2023-04-24T14:46:32.792Z,11.88
2023-04-24T14:49:01.675Z,12.14
2023-04-24T14:51:29.195Z,12.68
2023-04-24T14:53:58.198Z,12.27
2023-04-24T14:56:25.771Z,12.26
2023-04-24T14:58:53.314Z,12.04
2023-04-24T15:01:20.919Z,12.19
2023-04-24T15:03:48.790Z,12.09
2023-04-24T15:06:17.870Z,12.07
2023-04-24T15:08:46.425Z,12.36
2023-04-24T15:11:15.590Z,11.71
2023-04-24T15:13:43.042Z,11.38
2023-04-24T15:16:10.540Z,11.60
2023-04-24T15:18:38.203Z,11.68
2023-04-24T15:21:05.984Z,11.60
2023-04-24T15:23:34.892Z,12.00
2023-04-24T15:26:02.909Z,13.08
2023-04-24T15:28:30.479Z,13.68
2023-04-24T15:30:57.954Z,13.52
2023-04-24T15:33:26.790Z,12.71
2023-04-24T15:35:54.308Z,12.50
2023-04-24T15:38:21.864Z,12.31
2023-04-24T15:40:50.656Z,12.16
2023-04-24T15:43:18.185Z,11.94
2023-04-24T15:45:45.759Z,11.74
2023-04-24T15:48:13.333Z,11.68
2023-04-24T15:50:40.790Z,11.78
2023-04-24T15:53:08.252Z,11.77
2023-04-24T15:55:37.219Z,12.04
2023-04-24T15:58:06.171Z,12.24
2023-04-24T16:00:35.460Z,12.40
2023-04-24T16:03:03.550Z,12.28
2023-04-24T16:05:31.371Z,12.71
2023-04-24T16:07:58.898Z,12.62
2023-04-24T16:10:26.529Z,12.58
2023-04-24T16:12:54.567Z,11.81
2023-04-24T16:15:23.360Z,11.34
2023-04-24T16:17:51.480Z,10.21
2023-04-24T16:20:19.096Z,9.72
2023-04-24T16:22:46.746Z,9.77
2023-04-24T16:25:14.255Z,10.06
2023-04-24T16:27:41.818Z,10.34
2023-04-24T16:30:10.464Z,10.84
2023-04-24T16:32:39.430Z,11.40
2023-04-24T16:35:07.469Z,11.25
2023-04-24T16:37:34.988Z,11.29
2023-04-24T16:40:04.618Z,11.30
2023-04-24T16:42:32.113Z,11.16
2023-04-24T16:44:59.570Z,11.54
2023-04-24T16:47:27.129Z,11.28
2023-04-24T16:49:56.089Z,11.40
2023-04-24T16:52:23.598Z,11.53
2023-04-24T16:54:51.161Z,11.52
2023-04-24T16:57:18.616Z,10.92
2023-04-24T16:59:46.115Z,10.68
2023-04-24T17:02:14.232Z,10.63
2023-04-24T17:04:41.843Z,10.51
2023-04-24T17:07:10.751Z,10.47
2023-04-24T17:09:38.382Z,10.41
2023-04-24T17:12:07.448Z,10.48
2023-04-24T17:14:35.034Z,10.14
2023-04-24T17:17:02.678Z,10.43
2023-04-24T17:19:30.422Z,10.25
2023-04-24T17:21:58.761Z,10.24
2023-04-24T17:24:27.794Z,10.23
2023-04-24T17:27:01.708Z,10.24
2023-04-24T17:29:35.991Z,10.51
2023-04-24T17:32:03.526Z,10.92
2023-04-24T17:34:31.343Z,11.03
2023-04-24T17:36:58.906Z,10.97
2023-04-24T17:39:27.791Z,11.25
2023-04-24T17:41:55.260Z,10.78
2023-04-24T17:44:22.802Z,10.58
2023-04-24T17:46:50.575Z,10.46
2023-04-24T17:49:18.113Z,11.00
2023-04-24T17:51:45.597Z,11.02
2023-04-24T17:54:13.137Z,10.31
2023-04-24T17:56:42.061Z,10.43
2023-04-24T17:59:09.619Z,10.25
2023-04-24T18:01:37.193Z,10.14
2023-04-24T18:04:04.980Z,10.02
2023-04-24T18:06:32.797Z,10.36
2023-04-24T18:09:00.346Z,10.49
2023-04-24T18:11:29.015Z,10.45
2023-04-24T18:13:57.904Z,10.49
2023-04-24T18:16:25.968Z,11.07
2023-04-24T18:18:53.895Z,10.90
2023-04-24T18:21:21.417Z,11.19
2023-04-24T18:23:48.945Z,11.56
2023-04-24T18:26:17.100Z,11.07
2023-04-24T18:28:44.669Z,9.96
2023-04-24T18:31:13.528Z,10.03
2023-04-24T18:33:41.317Z,10.63
2023-04-24T18:36:08.813Z,11.00
2023-04-24T18:38:36.807Z,10.66
2023-04-24T18:41:04.422Z,9.78
2023-04-24T18:43:31.980Z,9.99
2023-04-24T18:45:59.454Z,10.02
2023-04-24T18:48:31.069Z,9.60
2023-04-24T18:50:58.760Z,9.69
2023-04-24T18:53:26.413Z,9.78
2023-04-24T18:55:53.874Z,10.29
2023-04-24T18:58:21.478Z,10.52
2023-04-24T19:00:48.976Z,10.41
2023-04-24T19:03:16.762Z,10.34
2023-04-24T19:05:45.785Z,10.24
2023-04-24T19:08:13.271Z,10.90
2023-04-24T19:10:40.871Z,10.98
2023-04-24T19:13:08.349Z,11.10
2023-04-24T19:15:35.783Z,11.16
2023-04-24T19:18:03.498Z,10.66
2023-04-24T19:20:31.039Z,10.58
2023-04-24T19:22:59.878Z,10.91
2023-04-24T19:25:27.400Z,10.80
2023-04-24T19:27:54.882Z,9.50
2023-04-24T19:30:22.563Z,8.80
2023-04-24T19:32:50.120Z,8.97
2023-04-24T19:35:17.785Z,9.04
2023-04-24T19:37:45.386Z,9.01
2023-04-24T19:40:14.401Z,9.15
2023-04-24T19:42:44.539Z,8.68
2023-04-24T19:45:12.735Z,8.82
2023-04-24T19:47:40.332Z,9.35
2023-04-24T19:50:08.881Z,9.38
2023-04-24T19:52:36.434Z,9.01
2023-04-24T19:55:04.005Z,9.19
2023-04-24T19:57:32.850Z,9.27
2023-04-24T20:00:00.500Z,9.07
2023-04-24T20:02:28.112Z,9.29
2023-04-24T20:04:55.911Z,9.04
2023-04-24T20:07:23.669Z,9.09
2023-04-24T20:09:51.214Z,9.36
2023-04-24T20:12:19.569Z,9.34
2023-04-24T20:14:49.234Z,9.81
2023-04-24T20:17:17.093Z,10.09
2023-04-24T20:19:44.792Z,9.94
2023-04-24T20:22:13.457Z,10.02
2023-04-24T20:24:41.347Z,9.66
2023-04-24T20:27:08.828Z,9.97
2023-04-24T20:29:36.661Z,10.04
2023-04-24T20:32:06.462Z,9.74
2023-04-24T20:34:33.997Z,9.53
2023-04-24T20:37:03.895Z,9.50
2023-04-24T20:39:31.391Z,9.05
2023-04-24T20:41:59.250Z,8.72
2023-04-24T20:44:26.770Z,8.84
2023-04-24T20:46:54.491Z,8.93
2023-04-24T20:49:23.351Z,9.08
2023-04-24T20:51:50.904Z,8.92
2023-04-24T20:54:18.393Z,8.72
2023-04-24T20:56:46.390Z,9.14
2023-04-24T20:59:13.911Z,9.38
2023-04-24T21:01:44.138Z,9.27
2023-04-24T21:04:12.055Z,9.01
2023-04-24T21:06:40.941Z,8.87
2023-04-24T21:09:09.444Z,8.32
2023-04-24T21:11:36.965Z,8.23
2023-04-24T21:14:04.456Z,7.93
2023-04-24T21:16:31.968Z,7.85
2023-04-24T21:18:59.466Z,8.03
2023-04-24T21:21:26.949Z,8.59
2023-04-24T21:23:55.839Z,8.71
2023-04-24T21:26:23.389Z,8.50
2023-04-24T21:28:50.956Z,8.16
2023-04-24T21:31:18.483Z,8.31
2023-04-24T21:33:45.986Z,8.77
2023-04-24T21:36:13.495Z,8.50
2023-04-24T21:38:40.974Z,8.65
2023-04-24T21:41:09.788Z,8.75
2023-04-24T21:43:44.821Z,8.77
2023-04-24T21:46:13.053Z,8.80
2023-04-24T21:48:40.541Z,9.02
2023-04-24T21:51:08.078Z,9.14
2023-04-24T21:53:35.544Z,9.53
2023-04-24T21:56:03.187Z,9.86
2023-04-24T21:58:32.069Z,9.73
2023-04-24T22:00:59.712Z,10.01
2023-04-24T22:03:27.387Z,9.67
2023-04-24T22:05:54.990Z,9.89
2023-04-24T22:08:22.476Z,9.88
2023-04-24T22:10:50.636Z,9.90
2023-04-24T22:13:18.172Z,10.00
2023-04-24T22:15:47.016Z,9.99
2023-04-24T22:18:14.471Z,10.01
2023-04-24T22:20:42.576Z,10.14
2023-04-24T22:23:10.119Z,10.02
2023-04-24T22:25:37.589Z,9.87
2023-04-24T22:28:05.178Z,9.75
2023-04-24T22:30:32.704Z,9.99
2023-04-24T22:33:01.593Z,10.17
2023-04-24T22:35:29.082Z,10.13
2023-04-24T22:37:57.399Z,10.14
2023-04-24T22:40:26.051Z,9.92
2023-04-24T22:42:53.959Z,10.32
2023-04-24T22:45:23.568Z,10.23
2023-04-24T22:47:51.345Z,10.29
2023-04-24T22:50:20.931Z,10.33
2023-04-24T22:52:48.562Z,10.20
2023-04-24T22:55:16.165Z,10.02
2023-04-24T22:57:44.012Z,10.15
2023-04-24T23:00:13.002Z,9.81
2023-04-24T23:02:42.025Z,9.75
2023-04-24T23:05:10.929Z,9.75
2023-04-24T23:07:39.828Z,9.65
2023-04-24T23:10:08.192Z,9.82
2023-04-24T23:12:35.819Z,9.43
2023-04-24T23:15:03.448Z,9.55
2023-04-24T23:17:30.965Z,9.74
2023-04-24T23:19:58.468Z,9.49
2023-04-24T23:22:25.998Z,9.29
2023-04-24T23:24:54.808Z,9.29
2023-04-24T23:27:22.304Z,9.25
2023-04-24T23:29:50.019Z,9.25
2023-04-24T23:32:17.536Z,9.42
2023-04-24T23:34:45.663Z,9.63
2023-04-24T23:37:13.266Z,9.87
2023-04-24T23:39:40.748Z,10.16
2023-04-24T23:42:09.533Z,10.39
2023-04-24T23:44:37.853Z,10.57
2023-04-24T23:47:05.408Z,10.68
2023-04-24T23:49:32.910Z,10.43
2023-04-24T23:52:00.468Z,10.31
2023-04-24T23:54:27.962Z,10.31
2023-04-24T23:56:55.844Z,10.52
2023-04-24T23:59:24.649Z,10.53
